sensor_id;sensor_type;location;lat;lon;timestamp;P1;durP1;ratioP1;P2;durP2;ratioP2
19593;SDS011;9944;48.240;16.478;2023-09-19T00:02:30;0.55;;;0.40;;
19593;SDS011;9944;48.240;16.478;2023-09-19T00:06:35;0.43;;;0.43;;
19593;SDS011;9944;48.240;16.478;2023-09-19T00:10:38;0.40;;;0.40;;
19593;SDS011;9944;48.240;16.478;2023-09-19T00:14:43;0.60;;;0.60;;
19593;SDS011;9944;48.240;16.478;2023-09-19T00:18:48;0.55;;;0.55;;
19593;SDS011;9944;48.240;16.478;2023-09-19T00:22:52;0.73;;;0.73;;
19593;SDS011;9944;48.240;16.478;2023-09-19T00:26:55;2.30;;;0.70;;
19593;SDS011;9944;48.240;16.478;2023-09-19T00:31:00;0.77;;;0.77;;
19593;SDS011;9944;48.240;16.478;2023-09-19T00:35:07;0.60;;;0.60;;
19593;SDS011;9944;48.240;16.478;2023-09-19T00:39:12;0.98;;;0.77;;
19593;SDS011;9944;48.240;16.478;2023-09-19T00:43:15;0.93;;;0.70;;
19593;SDS011;9944;48.240;16.478;2023-09-19T00:47:19;0.93;;;0.70;;
19593;SDS011;9944;48.240;16.478;2023-09-19T00:51:24;0.50;;;0.50;;
19593;SDS011;9944;48.240;16.478;2023-09-19T00:55:29;1.75;;;0.90;;
19593;SDS011;9944;48.240;16.478;2023-09-19T00:59:34;3.30;;;0.57;;
19593;SDS011;9944;48.240;16.478;2023-09-19T01:03:38;0.40;;;0.40;;
19593;SDS011;9944;48.240;16.478;2023-09-19T01:07:44;1.20;;;0.50;;
19593;SDS011;9944;48.240;16.478;2023-09-19T01:11:50;1.05;;;0.52;;
19593;SDS011;9944;48.240;16.478;2023-09-19T01:15:59;0.95;;;0.43;;
19593;SDS011;9944;48.240;16.478;2023-09-19T01:24:47;0.95;;;0.30;;
19593;SDS011;9944;48.240;16.478;2023-09-19T01:29:12;0.50;;;0.50;;
19593;SDS011;9944;48.240;16.478;2023-09-19T01:38:08;0.57;;;0.40;;
19593;SDS011;9944;48.240;16.478;2023-09-19T01:42:15;0.40;;;0.30;;
19593;SDS011;9944;48.240;16.478;2023-09-19T01:46:25;0.47;;;0.32;;
19593;SDS011;9944;48.240;16.478;2023-09-19T01:50:38;0.77;;;0.47;;
19593;SDS011;9944;48.240;16.478;2023-09-19T01:54:48;1.13;;;0.50;;
19593;SDS011;9944;48.240;16.478;2023-09-19T01:58:55;0.70;;;0.55;;
19593;SDS011;9944;48.240;16.478;2023-09-19T02:03:02;0.73;;;0.30;;
19593;SDS011;9944;48.240;16.478;2023-09-19T02:07:08;1.02;;;0.40;;
19593;SDS011;9944;48.240;16.478;2023-09-19T02:11:11;0.70;;;0.50;;
19593;SDS011;9944;48.240;16.478;2023-09-19T02:15:15;2.10;;;0.60;;
19593;SDS011;9944;48.240;16.478;2023-09-19T02:19:19;0.47;;;0.25;;
19593;SDS011;9944;48.240;16.478;2023-09-19T02:23:25;0.60;;;0.50;;
19593;SDS011;9944;48.240;16.478;2023-09-19T02:27:28;0.45;;;0.35;;
19593;SDS011;9944;48.240;16.478;2023-09-19T02:31:32;0.57;;;0.50;;
19593;SDS011;9944;48.240;16.478;2023-09-19T02:35:36;1.35;;;0.63;;
19593;SDS011;9944;48.240;16.478;2023-09-19T02:39:41;0.40;;;0.40;;
19593;SDS011;9944;48.240;16.478;2023-09-19T02:43:46;0.47;;;0.40;;
19593;SDS011;9944;48.240;16.478;2023-09-19T02:47:49;0.75;;;0.52;;
19593;SDS011;9944;48.240;16.478;2023-09-19T02:51:53;0.90;;;0.40;;
19593;SDS011;9944;48.240;16.478;2023-09-19T02:55:58;0.40;;;0.40;;
19593;SDS011;9944;48.240;16.478;2023-09-19T03:00:03;0.63;;;0.40;;
19593;SDS011;9944;48.240;16.478;2023-09-19T03:04:07;0.75;;;0.47;;
19593;SDS011;9944;48.240;16.478;2023-09-19T03:08:13;1.13;;;0.47;;
19593;SDS011;9944;48.240;16.478;2023-09-19T03:12:21;0.40;;;0.40;;
19593;SDS011;9944;48.240;16.478;2023-09-19T03:16:26;1.38;;;0.57;;
19593;SDS011;9944;48.240;16.478;2023-09-19T03:20:33;0.30;;;0.30;;
19593;SDS011;9944;48.240;16.478;2023-09-19T03:24:38;0.85;;;0.70;;
19593;SDS011;9944;48.240;16.478;2023-09-19T03:28:42;1.05;;;0.30;;
19593;SDS011;9944;48.240;16.478;2023-09-19T03:32:49;1.10;;;0.55;;
19593;SDS011;9944;48.240;16.478;2023-09-19T03:36:53;0.68;;;0.55;;
19593;SDS011;9944;48.240;16.478;2023-09-19T03:40:57;1.17;;;0.47;;
19593;SDS011;9944;48.240;16.478;2023-09-19T03:45:02;0.60;;;0.40;;
19593;SDS011;9944;48.240;16.478;2023-09-19T03:49:09;0.65;;;0.60;;
19593;SDS011;9944;48.240;16.478;2023-09-19T03:53:12;0.85;;;0.70;;
19593;SDS011;9944;48.240;16.478;2023-09-19T03:57:15;0.68;;;0.40;;
19593;SDS011;9944;48.240;16.478;2023-09-19T04:01:23;0.75;;;0.60;;
19593;SDS011;9944;48.240;16.478;2023-09-19T04:05:28;0.93;;;0.70;;
19593;SDS011;9944;48.240;16.478;2023-09-19T04:09:31;0.70;;;0.63;;
19593;SDS011;9944;48.240;16.478;2023-09-19T04:13:34;1.67;;;0.70;;
19593;SDS011;9944;48.240;16.478;2023-09-19T04:17:39;0.82;;;0.68;;
19593;SDS011;9944;48.240;16.478;2023-09-19T04:21:43;1.83;;;0.70;;
19593;SDS011;9944;48.240;16.478;2023-09-19T04:25:46;0.70;;;0.50;;
19593;SDS011;9944;48.240;16.478;2023-09-19T04:29:50;1.90;;;0.52;;
19593;SDS011;9944;48.240;16.478;2023-09-19T04:33:56;0.63;;;0.63;;
19593;SDS011;9944;48.240;16.478;2023-09-19T04:38:01;0.75;;;0.60;;
19593;SDS011;9944;48.240;16.478;2023-09-19T04:42:07;1.40;;;0.60;;
19593;SDS011;9944;48.240;16.478;2023-09-19T04:46:14;1.00;;;0.85;;
19593;SDS011;9944;48.240;16.478;2023-09-19T04:50:20;0.75;;;0.70;;
19593;SDS011;9944;48.240;16.478;2023-09-19T04:54:25;0.95;;;0.80;;
19593;SDS011;9944;48.240;16.478;2023-09-19T04:58:28;1.08;;;0.70;;
19593;SDS011;9944;48.240;16.478;2023-09-19T05:02:32;2.45;;;0.80;;
19593;SDS011;9944;48.240;16.478;2023-09-19T05:06:37;0.98;;;0.80;;
19593;SDS011;9944;48.240;16.478;2023-09-19T05:10:41;1.30;;;0.80;;
19593;SDS011;9944;48.240;16.478;2023-09-19T05:14:44;1.40;;;0.75;;
19593;SDS011;9944;48.240;16.478;2023-09-19T05:18:47;0.80;;;0.80;;
19593;SDS011;9944;48.240;16.478;2023-09-19T05:22:58;1.20;;;0.80;;
19593;SDS011;9944;48.240;16.478;2023-09-19T05:27:04;1.23;;;0.90;;
19593;SDS011;9944;48.240;16.478;2023-09-19T05:31:08;1.08;;;0.90;;
19593;SDS011;9944;48.240;16.478;2023-09-19T05:35:12;0.95;;;0.90;;
19593;SDS011;9944;48.240;16.478;2023-09-19T05:39:16;1.17;;;1.02;;
19593;SDS011;9944;48.240;16.478;2023-09-19T05:43:20;2.28;;;1.30;;
19593;SDS011;9944;48.240;16.478;2023-09-19T05:47:24;2.30;;;1.20;;
19593;SDS011;9944;48.240;16.478;2023-09-19T05:51:27;1.40;;;1.17;;
19593;SDS011;9944;48.240;16.478;2023-09-19T05:55:32;1.48;;;1.10;;
19593;SDS011;9944;48.240;16.478;2023-09-19T05:59:36;1.65;;;1.20;;
19593;SDS011;9944;48.240;16.478;2023-09-19T06:03:41;1.50;;;1.00;;
19593;SDS011;9944;48.240;16.478;2023-09-19T06:07:44;5.25;;;1.38;;
19593;SDS011;9944;48.240;16.478;2023-09-19T06:11:49;2.05;;;1.20;;
19593;SDS011;9944;48.240;16.478;2023-09-19T06:15:54;3.17;;;1.20;;
19593;SDS011;9944;48.240;16.478;2023-09-19T06:19:58;1.25;;;1.13;;
19593;SDS011;9944;48.240;16.478;2023-09-19T06:24:01;1.25;;;1.15;;
19593;SDS011;9944;48.240;16.478;2023-09-19T06:28:06;1.60;;;1.27;;
19593;SDS011;9944;48.240;16.478;2023-09-19T06:32:13;1.20;;;1.10;;
19593;SDS011;9944;48.240;16.478;2023-09-19T06:36:17;1.40;;;1.10;;
19593;SDS011;9944;48.240;16.478;2023-09-19T06:40:21;2.25;;;1.40;;
19593;SDS011;9944;48.240;16.478;2023-09-19T06:44:25;2.03;;;1.20;;
19593;SDS011;9944;48.240;16.478;2023-09-19T06:48:31;1.50;;;1.13;;
19593;SDS011;9944;48.240;16.478;2023-09-19T06:52:35;1.70;;;1.30;;
19593;SDS011;9944;48.240;16.478;2023-09-19T06:56:38;2.63;;;0.98;;
19593;SDS011;9944;48.240;16.478;2023-09-19T07:00:44;2.80;;;1.10;;
19593;SDS011;9944;48.240;16.478;2023-09-19T07:04:48;2.95;;;1.00;;
19593;SDS011;9944;48.240;16.478;2023-09-19T07:08:51;1.52;;;0.90;;
19593;SDS011;9944;48.240;16.478;2023-09-19T07:12:55;1.00;;;0.90;;
19593;SDS011;9944;48.240;16.478;2023-09-19T07:17:01;1.40;;;1.00;;
19593;SDS011;9944;48.240;16.478;2023-09-19T07:21:05;4.32;;;1.10;;
19593;SDS011;9944;48.240;16.478;2023-09-19T07:25:08;2.05;;;0.82;;
19593;SDS011;9944;48.240;16.478;2023-09-19T07:29:12;2.17;;;0.90;;
19593;SDS011;9944;48.240;16.478;2023-09-19T07:33:16;1.90;;;1.10;;
19593;SDS011;9944;48.240;16.478;2023-09-19T07:37:20;1.58;;;1.02;;
19593;SDS011;9944;48.240;16.478;2023-09-19T07:41:24;4.05;;;1.02;;
19593;SDS011;9944;48.240;16.478;2023-09-19T07:45:27;1.38;;;0.98;;
19593;SDS011;9944;48.240;16.478;2023-09-19T07:49:33;1.02;;;0.70;;
19593;SDS011;9944;48.240;16.478;2023-09-19T07:53:37;1.10;;;0.90;;
19593;SDS011;9944;48.240;16.478;2023-09-19T07:57:40;1.05;;;0.95;;
19593;SDS011;9944;48.240;16.478;2023-09-19T08:01:44;1.20;;;1.00;;
19593;SDS011;9944;48.240;16.478;2023-09-19T08:05:48;2.25;;;1.15;;
19593;SDS011;9944;48.240;16.478;2023-09-19T08:09:52;1.40;;;0.93;;
19593;SDS011;9944;48.240;16.478;2023-09-19T08:13:55;2.35;;;1.10;;
19593;SDS011;9944;48.240;16.478;2023-09-19T08:18:00;1.10;;;1.00;;
19593;SDS011;9944;48.240;16.478;2023-09-19T08:22:04;1.85;;;1.00;;
19593;SDS011;9944;48.240;16.478;2023-09-19T08:26:08;1.52;;;1.10;;
19593;SDS011;9944;48.240;16.478;2023-09-19T08:30:11;1.17;;;1.08;;
19593;SDS011;9944;48.240;16.478;2023-09-19T08:34:16;1.65;;;1.05;;
19593;SDS011;9944;48.240;16.478;2023-09-19T08:38:21;1.65;;;0.90;;
19593;SDS011;9944;48.240;16.478;2023-09-19T08:42:24;1.48;;;1.08;;
19593;SDS011;9944;48.240;16.478;2023-09-19T08:46:28;2.22;;;1.08;;
19593;SDS011;9944;48.240;16.478;2023-09-19T08:50:37;1.65;;;1.10;;
19593;SDS011;9944;48.240;16.478;2023-09-19T08:54:48;1.20;;;1.05;;
19593;SDS011;9944;48.240;16.478;2023-09-19T08:58:55;1.52;;;1.05;;
19593;SDS011;9944;48.240;16.478;2023-09-19T09:03:03;1.13;;;1.02;;
19593;SDS011;9944;48.240;16.478;2023-09-19T09:07:10;0.98;;;0.85;;
19593;SDS011;9944;48.240;16.478;2023-09-19T09:11:16;1.77;;;0.88;;
19593;SDS011;9944;48.240;16.478;2023-09-19T09:15:20;1.10;;;1.00;;
19593;SDS011;9944;48.240;16.478;2023-09-19T09:19:25;2.00;;;0.90;;
19593;SDS011;9944;48.240;16.478;2023-09-19T09:23:28;1.30;;;1.00;;
19593;SDS011;9944;48.240;16.478;2023-09-19T09:27:34;3.53;;;1.00;;
19593;SDS011;9944;48.240;16.478;2023-09-19T09:31:38;1.00;;;0.90;;
19593;SDS011;9944;48.240;16.478;2023-09-19T09:35:48;2.05;;;1.00;;
19593;SDS011;9944;48.240;16.478;2023-09-19T09:39:54;1.05;;;0.98;;
19593;SDS011;9944;48.240;16.478;2023-09-19T09:44:11;1.02;;;0.80;;
19593;SDS011;9944;48.240;16.478;2023-09-19T09:48:17;2.85;;;0.90;;
19593;SDS011;9944;48.240;16.478;2023-09-19T09:52:44;1.80;;;0.93;;
19593;SDS011;9944;48.240;16.478;2023-09-19T09:56:54;1.55;;;1.17;;
19593;SDS011;9944;48.240;16.478;2023-09-19T10:01:02;1.50;;;1.00;;
19593;SDS011;9944;48.240;16.478;2023-09-19T10:05:11;1.33;;;1.10;;
19593;SDS011;9944;48.240;16.478;2023-09-19T10:09:23;1.38;;;1.08;;
19593;SDS011;9944;48.240;16.478;2023-09-19T10:13:38;1.02;;;0.93;;
19593;SDS011;9944;48.240;16.478;2023-09-19T10:17:45;1.50;;;1.10;;
19593;SDS011;9944;48.240;16.478;2023-09-19T10:21:50;1.33;;;0.98;;
19593;SDS011;9944;48.240;16.478;2023-09-19T10:25:56;1.13;;;0.73;;
19593;SDS011;9944;48.240;16.478;2023-09-19T10:30:05;1.10;;;1.00;;
19593;SDS011;9944;48.240;16.478;2023-09-19T10:34:12;1.00;;;0.90;;
19593;SDS011;9944;48.240;16.478;2023-09-19T10:38:18;1.42;;;0.73;;
19593;SDS011;9944;48.240;16.478;2023-09-19T10:42:22;1.17;;;0.90;;
19593;SDS011;9944;48.240;16.478;2023-09-19T10:46:31;1.73;;;1.27;;
19593;SDS011;9944;48.240;16.478;2023-09-19T10:50:37;1.23;;;1.00;;
19593;SDS011;9944;48.240;16.478;2023-09-19T10:54:48;1.25;;;0.95;;
19593;SDS011;9944;48.240;16.478;2023-09-19T10:59:05;2.95;;;1.25;;
19593;SDS011;9944;48.240;16.478;2023-09-19T11:03:17;0.80;;;0.80;;
19593;SDS011;9944;48.240;16.478;2023-09-19T11:07:24;1.42;;;1.15;;
19593;SDS011;9944;48.240;16.478;2023-09-19T11:11:44;2.10;;;1.00;;
19593;SDS011;9944;48.240;16.478;2023-09-19T11:20:22;1.13;;;1.00;;
19593;SDS011;9944;48.240;16.478;2023-09-19T11:24:42;2.60;;;1.02;;
19593;SDS011;9944;48.240;16.478;2023-09-19T11:28:45;2.42;;;1.15;;
19593;SDS011;9944;48.240;16.478;2023-09-19T11:46:58;1.60;;;1.20;;
19593;SDS011;9944;48.240;16.478;2023-09-19T11:51:03;1.98;;;1.17;;
19593;SDS011;9944;48.240;16.478;2023-09-19T11:55:21;1.63;;;1.00;;
19593;SDS011;9944;48.240;16.478;2023-09-19T11:59:26;1.40;;;1.02;;
19593;SDS011;9944;48.240;16.478;2023-09-19T12:03:32;1.38;;;1.17;;
19593;SDS011;9944;48.240;16.478;2023-09-19T12:07:43;2.35;;;1.13;;
19593;SDS011;9944;48.240;16.478;2023-09-19T12:11:49;1.02;;;0.93;;
19593;SDS011;9944;48.240;16.478;2023-09-19T12:15:53;0.93;;;0.80;;
19593;SDS011;9944;48.240;16.478;2023-09-19T12:19:58;0.88;;;0.88;;
19593;SDS011;9944;48.240;16.478;2023-09-19T12:24:06;1.27;;;1.02;;
19593;SDS011;9944;48.240;16.478;2023-09-19T12:28:15;1.00;;;0.90;;
19593;SDS011;9944;48.240;16.478;2023-09-19T12:32:18;0.90;;;0.90;;
19593;SDS011;9944;48.240;16.478;2023-09-19T12:36:38;1.35;;;1.20;;
19593;SDS011;9944;48.240;16.478;2023-09-19T12:40:42;1.77;;;0.93;;
19593;SDS011;9944;48.240;16.478;2023-09-19T12:44:47;0.93;;;0.90;;
19593;SDS011;9944;48.240;16.478;2023-09-19T12:53:26;1.27;;;0.80;;
19593;SDS011;9944;48.240;16.478;2023-09-19T12:57:31;0.60;;;0.60;;
19593;SDS011;9944;48.240;16.478;2023-09-19T13:01:36;1.73;;;0.73;;
19593;SDS011;9944;48.240;16.478;2023-09-19T13:05:48;1.10;;;0.75;;
19593;SDS011;9944;48.240;16.478;2023-09-19T13:10:03;1.73;;;0.80;;
19593;SDS011;9944;48.240;16.478;2023-09-19T13:14:15;1.67;;;1.00;;
19593;SDS011;9944;48.240;16.478;2023-09-19T13:18:21;1.85;;;0.93;;
19593;SDS011;9944;48.240;16.478;2023-09-19T13:22:37;1.10;;;1.00;;
19593;SDS011;9944;48.240;16.478;2023-09-19T13:26:44;1.05;;;0.85;;
19593;SDS011;9944;48.240;16.478;2023-09-19T13:30:47;3.25;;;1.00;;
19593;SDS011;9944;48.240;16.478;2023-09-19T13:34:51;1.58;;;1.00;;
19593;SDS011;9944;48.240;16.478;2023-09-19T13:38:54;1.08;;;1.00;;
19593;SDS011;9944;48.240;16.478;2023-09-19T13:42:59;1.60;;;1.10;;
19593;SDS011;9944;48.240;16.478;2023-09-19T13:47:02;2.63;;;1.20;;
19593;SDS011;9944;48.240;16.478;2023-09-19T13:51:11;3.35;;;1.35;;
19593;SDS011;9944;48.240;16.478;2023-09-19T13:55:14;2.05;;;1.17;;
19593;SDS011;9944;48.240;16.478;2023-09-19T13:59:23;1.58;;;1.20;;
19593;SDS011;9944;48.240;16.478;2023-09-19T14:03:27;1.40;;;0.98;;
19593;SDS011;9944;48.240;16.478;2023-09-19T14:07:31;1.25;;;1.00;;
19593;SDS011;9944;48.240;16.478;2023-09-19T14:11:34;1.45;;;1.20;;
19593;SDS011;9944;48.240;16.478;2023-09-19T14:15:39;1.42;;;1.05;;
19593;SDS011;9944;48.240;16.478;2023-09-19T14:19:42;1.58;;;1.13;;
19593;SDS011;9944;48.240;16.478;2023-09-19T14:23:47;1.30;;;1.08;;
19593;SDS011;9944;48.240;16.478;2023-09-19T14:27:50;1.20;;;1.10;;
19593;SDS011;9944;48.240;16.478;2023-09-19T14:31:56;1.13;;;1.00;;
19593;SDS011;9944;48.240;16.478;2023-09-19T14:36:02;2.35;;;1.60;;
19593;SDS011;9944;48.240;16.478;2023-09-19T14:40:08;11.18;;;1.23;;
19593;SDS011;9944;48.240;16.478;2023-09-19T14:44:11;1.30;;;1.10;;
19593;SDS011;9944;48.240;16.478;2023-09-19T14:48:16;2.25;;;1.00;;
19593;SDS011;9944;48.240;16.478;2023-09-19T14:52:20;1.27;;;1.10;;
19593;SDS011;9944;48.240;16.478;2023-09-19T14:56:23;1.33;;;1.00;;
19593;SDS011;9944;48.240;16.478;2023-09-19T15:00:27;3.72;;;1.00;;
19593;SDS011;9944;48.240;16.478;2023-09-19T15:04:31;0.70;;;0.70;;
19593;SDS011;9944;48.240;16.478;2023-09-19T15:08:37;0.75;;;0.60;;
19593;SDS011;9944;48.240;16.478;2023-09-19T15:12:42;2.20;;;0.80;;
19593;SDS011;9944;48.240;16.478;2023-09-19T15:16:45;1.10;;;0.82;;
19593;SDS011;9944;48.240;16.478;2023-09-19T15:20:52;1.00;;;0.90;;
19593;SDS011;9944;48.240;16.478;2023-09-19T15:24:56;0.93;;;0.80;;
19593;SDS011;9944;48.240;16.478;2023-09-19T15:28:59;1.38;;;0.98;;
19593;SDS011;9944;48.240;16.478;2023-09-19T15:33:02;1.20;;;0.85;;
19593;SDS011;9944;48.240;16.478;2023-09-19T15:37:07;0.68;;;0.60;;
19593;SDS011;9944;48.240;16.478;2023-09-19T15:41:11;4.00;;;1.00;;
19593;SDS011;9944;48.240;16.478;2023-09-19T15:45:15;0.90;;;0.88;;
19593;SDS011;9944;48.240;16.478;2023-09-19T15:49:20;0.77;;;0.73;;
19593;SDS011;9944;48.240;16.478;2023-09-19T15:53:26;1.33;;;0.80;;
19593;SDS011;9944;48.240;16.478;2023-09-19T15:57:30;1.10;;;0.70;;
19593;SDS011;9944;48.240;16.478;2023-09-19T16:01:34;1.27;;;0.80;;
19593;SDS011;9944;48.240;16.478;2023-09-19T16:05:37;0.95;;;0.75;;
19593;SDS011;9944;48.240;16.478;2023-09-19T16:09:42;1.95;;;0.80;;
19593;SDS011;9944;48.240;16.478;2023-09-19T16:13:46;1.10;;;0.65;;
19593;SDS011;9944;48.240;16.478;2023-09-19T16:17:51;0.82;;;0.65;;
19593;SDS011;9944;48.240;16.478;2023-09-19T16:21:55;1.45;;;0.88;;
19593;SDS011;9944;48.240;16.478;2023-09-19T16:26:04;0.55;;;0.55;;
19593;SDS011;9944;48.240;16.478;2023-09-19T16:30:08;0.63;;;0.47;;
19593;SDS011;9944;48.240;16.478;2023-09-19T16:34:12;0.68;;;0.68;;
19593;SDS011;9944;48.240;16.478;2023-09-19T16:38:16;0.60;;;0.60;;
19593;SDS011;9944;48.240;16.478;2023-09-19T16:42:21;1.23;;;0.80;;
19593;SDS011;9944;48.240;16.478;2023-09-19T16:46:25;0.68;;;0.60;;
19593;SDS011;9944;48.240;16.478;2023-09-19T16:50:29;1.85;;;0.80;;
19593;SDS011;9944;48.240;16.478;2023-09-19T16:54:35;0.70;;;0.70;;
19593;SDS011;9944;48.240;16.478;2023-09-19T16:58:40;0.63;;;0.60;;
19593;SDS011;9944;48.240;16.478;2023-09-19T17:02:46;1.08;;;0.80;;
19593;SDS011;9944;48.240;16.478;2023-09-19T17:06:54;1.40;;;0.80;;
19593;SDS011;9944;48.240;16.478;2023-09-19T17:11:02;1.05;;;0.80;;
19593;SDS011;9944;48.240;16.478;2023-09-19T17:15:09;1.05;;;0.80;;
19593;SDS011;9944;48.240;16.478;2023-09-19T17:19:12;0.63;;;0.63;;
19593;SDS011;9944;48.240;16.478;2023-09-19T17:23:16;0.73;;;0.70;;
19593;SDS011;9944;48.240;16.478;2023-09-19T17:27:19;0.77;;;0.70;;
19593;SDS011;9944;48.240;16.478;2023-09-19T17:31:25;1.17;;;0.85;;
19593;SDS011;9944;48.240;16.478;2023-09-19T17:35:30;0.50;;;0.50;;
19593;SDS011;9944;48.240;16.478;2023-09-19T17:39:34;2.00;;;0.70;;
19593;SDS011;9944;48.240;16.478;2023-09-19T17:43:37;0.75;;;0.70;;
19593;SDS011;9944;48.240;16.478;2023-09-19T17:47:43;1.10;;;0.70;;
19593;SDS011;9944;48.240;16.478;2023-09-19T17:51:46;0.70;;;0.70;;
19593;SDS011;9944;48.240;16.478;2023-09-19T17:55:49;4.90;;;1.00;;
19593;SDS011;9944;48.240;16.478;2023-09-19T17:59:53;0.80;;;0.73;;
19593;SDS011;9944;48.240;16.478;2023-09-19T18:03:58;1.35;;;0.82;;
19593;SDS011;9944;48.240;16.478;2023-09-19T18:08:04;0.57;;;0.57;;
19593;SDS011;9944;48.240;16.478;2023-09-19T18:12:08;0.77;;;0.70;;
19593;SDS011;9944;48.240;16.478;2023-09-19T18:16:11;1.23;;;0.73;;
19593;SDS011;9944;48.240;16.478;2023-09-19T18:20:16;1.63;;;0.82;;
19593;SDS011;9944;48.240;16.478;2023-09-19T18:24:21;1.15;;;0.70;;
19593;SDS011;9944;48.240;16.478;2023-09-19T18:28:24;1.13;;;0.70;;
19593;SDS011;9944;48.240;16.478;2023-09-19T18:32:27;0.85;;;0.70;;
19593;SDS011;9944;48.240;16.478;2023-09-19T18:36:32;0.82;;;0.70;;
19593;SDS011;9944;48.240;16.478;2023-09-19T18:40:41;0.68;;;0.68;;
19593;SDS011;9944;48.240;16.478;2023-09-19T18:44:45;1.92;;;0.70;;
19593;SDS011;9944;48.240;16.478;2023-09-19T18:48:53;0.70;;;0.70;;
19593;SDS011;9944;48.240;16.478;2023-09-19T18:52:59;1.35;;;0.85;;
19593;SDS011;9944;48.240;16.478;2023-09-19T18:57:02;2.17;;;0.82;;
19593;SDS011;9944;48.240;16.478;2023-09-19T19:01:07;1.10;;;0.70;;
19593;SDS011;9944;48.240;16.478;2023-09-19T19:05:11;0.88;;;0.75;;
19593;SDS011;9944;48.240;16.478;2023-09-19T19:09:16;2.22;;;0.73;;
19593;SDS011;9944;48.240;16.478;2023-09-19T19:13:20;0.75;;;0.63;;
19593;SDS011;9944;48.240;16.478;2023-09-19T19:17:24;1.05;;;0.80;;
19593;SDS011;9944;48.240;16.478;2023-09-19T19:21:28;0.80;;;0.63;;
19593;SDS011;9944;48.240;16.478;2023-09-19T19:25:35;1.42;;;0.70;;
19593;SDS011;9944;48.240;16.478;2023-09-19T19:29:39;0.60;;;0.60;;
19593;SDS011;9944;48.240;16.478;2023-09-19T19:33:42;0.80;;;0.50;;
19593;SDS011;9944;48.240;16.478;2023-09-19T19:37:46;0.75;;;0.68;;
19593;SDS011;9944;48.240;16.478;2023-09-19T19:41:52;0.77;;;0.60;;
19593;SDS011;9944;48.240;16.478;2023-09-19T19:45:55;1.10;;;0.70;;
19593;SDS011;9944;48.240;16.478;2023-09-19T19:49:59;0.65;;;0.65;;
19593;SDS011;9944;48.240;16.478;2023-09-19T19:54:02;0.70;;;0.70;;
19593;SDS011;9944;48.240;16.478;2023-09-19T19:58:08;0.65;;;0.50;;
19593;SDS011;9944;48.240;16.478;2023-09-19T20:02:11;0.57;;;0.55;;
19593;SDS011;9944;48.240;16.478;2023-09-19T20:06:15;0.80;;;0.70;;
19593;SDS011;9944;48.240;16.478;2023-09-19T20:10:19;0.60;;;0.50;;
19593;SDS011;9944;48.240;16.478;2023-09-19T20:14:25;1.73;;;0.70;;
19593;SDS011;9944;48.240;16.478;2023-09-19T20:18:28;0.57;;;0.57;;
19593;SDS011;9944;48.240;16.478;2023-09-19T20:22:32;0.70;;;0.63;;
19593;SDS011;9944;48.240;16.478;2023-09-19T20:26:36;0.65;;;0.57;;
19593;SDS011;9944;48.240;16.478;2023-09-19T20:30:42;1.80;;;0.70;;
19593;SDS011;9944;48.240;16.478;2023-09-19T20:34:46;0.70;;;0.70;;
19593;SDS011;9944;48.240;16.478;2023-09-19T20:38:49;0.50;;;0.50;;
19593;SDS011;9944;48.240;16.478;2023-09-19T20:42:53;0.88;;;0.63;;
19593;SDS011;9944;48.240;16.478;2023-09-19T20:46:58;0.73;;;0.70;;
19593;SDS011;9944;48.240;16.478;2023-09-19T20:51:04;0.73;;;0.68;;
19593;SDS011;9944;48.240;16.478;2023-09-19T20:55:09;0.55;;;0.52;;
19593;SDS011;9944;48.240;16.478;2023-09-19T20:59:12;1.23;;;0.60;;
19593;SDS011;9944;48.240;16.478;2023-09-19T21:03:17;0.95;;;0.60;;
19593;SDS011;9944;48.240;16.478;2023-09-19T21:07:21;1.15;;;0.70;;
19593;SDS011;9944;48.240;16.478;2023-09-19T21:11:25;0.60;;;0.60;;
19593;SDS011;9944;48.240;16.478;2023-09-19T21:15:29;0.60;;;0.60;;
19593;SDS011;9944;48.240;16.478;2023-09-19T21:19:34;0.77;;;0.63;;
19593;SDS011;9944;48.240;16.478;2023-09-19T21:23:37;0.60;;;0.60;;
19593;SDS011;9944;48.240;16.478;2023-09-19T21:27:41;0.50;;;0.45;;
19593;SDS011;9944;48.240;16.478;2023-09-19T21:31:45;0.50;;;0.50;;
19593;SDS011;9944;48.240;16.478;2023-09-19T21:35:50;0.98;;;0.80;;
19593;SDS011;9944;48.240;16.478;2023-09-19T21:39:53;0.70;;;0.60;;
19593;SDS011;9944;48.240;16.478;2023-09-19T21:43:57;0.55;;;0.52;;
19593;SDS011;9944;48.240;16.478;2023-09-19T21:48:00;1.55;;;0.65;;
19593;SDS011;9944;48.240;16.478;2023-09-19T21:52:06;0.60;;;0.52;;
19593;SDS011;9944;48.240;16.478;2023-09-19T21:56:09;0.68;;;0.63;;
19593;SDS011;9944;48.240;16.478;2023-09-19T22:00:13;1.02;;;0.80;;
19593;SDS011;9944;48.240;16.478;2023-09-19T22:04:27;2.10;;;0.73;;
19593;SDS011;9944;48.240;16.478;2023-09-19T22:08:32;1.20;;;0.60;;
19593;SDS011;9944;48.240;16.478;2023-09-19T22:12:35;0.93;;;0.73;;
19593;SDS011;9944;48.240;16.478;2023-09-19T22:16:39;1.23;;;0.60;;
19593;SDS011;9944;48.240;16.478;2023-09-19T22:20:44;2.15;;;0.60;;
19593;SDS011;9944;48.240;16.478;2023-09-19T22:24:57;1.15;;;0.90;;
19593;SDS011;9944;48.240;16.478;2023-09-19T22:29:01;0.70;;;0.70;;
19593;SDS011;9944;48.240;16.478;2023-09-19T22:33:05;1.08;;;0.73;;
19593;SDS011;9944;48.240;16.478;2023-09-19T22:37:12;0.75;;;0.73;;
19593;SDS011;9944;48.240;16.478;2023-09-19T22:41:17;1.50;;;0.70;;
19593;SDS011;9944;48.240;16.478;2023-09-19T22:45:20;0.88;;;0.65;;
19593;SDS011;9944;48.240;16.478;2023-09-19T22:49:27;0.80;;;0.70;;
19593;SDS011;9944;48.240;16.478;2023-09-19T22:53:31;1.00;;;0.70;;
19593;SDS011;9944;48.240;16.478;2023-09-19T22:57:46;1.13;;;0.52;;
19593;SDS011;9944;48.240;16.478;2023-09-19T23:01:49;1.23;;;0.88;;
19593;SDS011;9944;48.240;16.478;2023-09-19T23:05:54;1.10;;;1.00;;
19593;SDS011;9944;48.240;16.478;2023-09-19T23:10:00;1.52;;;0.90;;
19593;SDS011;9944;48.240;16.478;2023-09-19T23:14:09;1.60;;;0.90;;
19593;SDS011;9944;48.240;16.478;2023-09-19T23:18:12;1.25;;;1.02;;
19593;SDS011;9944;48.240;16.478;2023-09-19T23:22:16;1.52;;;0.93;;
19593;SDS011;9944;48.240;16.478;2023-09-19T23:26:25;1.10;;;0.90;;
19593;SDS011;9944;48.240;16.478;2023-09-19T23:30:31;0.95;;;0.80;;
19593;SDS011;9944;48.240;16.478;2023-09-19T23:34:34;1.58;;;1.10;;
19593;SDS011;9944;48.240;16.478;2023-09-19T23:38:38;1.10;;;0.95;;
19593;SDS011;9944;48.240;16.478;2023-09-19T23:42:42;1.17;;;0.93;;
19593;SDS011;9944;48.240;16.478;2023-09-19T23:46:47;1.88;;;1.10;;
19593;SDS011;9944;48.240;16.478;2023-09-19T23:50:56;1.10;;;1.00;;
19593;SDS011;9944;48.240;16.478;2023-09-19T23:55:00;1.33;;;0.90;;
19593;SDS011;9944;48.240;16.478;2023-09-19T23:59:05;1.15;;;0.95;;
